Time;durP1;ratioP1;P1;durP2;ratioP2;P2;SDS_P1;SDS_P2;PMS_P1;PMS_P2;Temp;Humidity;BMP_temperature;BMP_pressure;BME280_temperature;BME280_humidity;BME280_pressure;Samples;Min_cycle;Max_cycle;Signal;HPM_P1;HPM_P2
2023/10/01 00:01:00;;;;;;;3.47;1.70;;;29.40;58.30;;;;;;5031651;28;20225;-84
2023/10/01 00:03:31;;;;;;;7.45;1.92;;;29.60;59.40;;;;;;5017735;28;20208;-84
2023/10/01 00:06:01;;;;;;;5.38;2.10;;;29.80;58.00;;;;;;5028738;28;20201;-84
2023/10/01 00:08:33;;;;;;;4.53;1.90;;;29.90;56.60;;;;;;5031409;28;20205;-84
2023/10/01 00:11:04;;;;;;;3.85;2.00;;;29.90;56.90;;;;;;5051770;28;20564;-84
2023/10/01 00:13:35;;;;;;;5.18;2.05;;;30.10;56.40;;;;;;5053298;28;20707;-84
2023/10/01 00:16:08;;;;;;;2.88;1.80;;;30.10;55.80;;;;;;5018480;28;20182;-84
2023/10/01 00:18:39;;;;;;;4.43;1.90;;;30.20;55.60;;;;;;5026752;28;20193;-84
2023/10/01 00:21:10;;;;;;;7.63;2.10;;;30.40;55.50;;;;;;5031871;28;20225;-84
2023/10/01 00:23:40;;;;;;;9.18;2.40;;;30.40;54.40;;;;;;5031458;28;20196;-84
2023/10/01 00:26:12;;;;;;;2.35;2.05;;;30.60;53.70;;;;;;5014058;28;20197;-83
2023/10/01 00:28:42;;;;;;;3.00;1.85;;;30.60;53.80;;;;;;5011701;28;20205;-84
2023/10/01 00:31:16;;;;;;;3.47;2.00;;;30.70;54.00;;;;;;5013375;28;20197;-84
2023/10/01 00:33:49;;;;;;;2.80;2.10;;;30.80;53.80;;;;;;5022742;28;20189;-84
2023/10/01 00:36:19;;;;;;;4.45;2.10;;;30.80;53.10;;;;;;5015389;28;20200;-83
2023/10/01 00:38:50;;;;;;;7.60;2.42;;;30.90;53.60;;;;;;5031318;28;20197;-84
2023/10/01 00:41:21;;;;;;;4.10;2.45;;;30.90;52.70;;;;;;5031102;28;20229;-84
2023/10/01 00:43:52;;;;;;;6.38;2.42;;;31.00;52.30;;;;;;5041557;28;20215;-84
2023/10/01 00:46:26;;;;;;;2.78;2.13;;;31.20;52.30;;;;;;5028428;28;20212;-85
2023/10/01 00:49:00;;;;;;;3.85;2.20;;;31.30;51.50;;;;;;5015287;28;20211;-84
2023/10/01 00:51:32;;;;;;;3.15;2.00;;;31.40;51.50;;;;;;5028125;28;20568;-83
2023/10/01 00:54:04;;;;;;;4.45;2.20;;;31.60;51.40;;;;;;5031469;28;20201;-85
2023/10/01 00:56:35;;;;;;;2.03;1.77;;;31.70;48.90;;;;;;5045387;28;20629;-85
2023/10/01 00:59:07;;;;;;;3.80;2.28;;;31.70;48.90;;;;;;5030455;28;20222;-85
2023/10/01 01:01:41;;;;;;;3.28;2.28;;;31.80;48.70;;;;;;5029721;28;20225;-85
2023/10/01 01:04:19;;;;;;;3.58;2.13;;;31.80;48.80;;;;;;5030848;28;20204;-84
2023/10/01 01:06:52;;;;;;;3.58;2.28;;;31.80;47.20;;;;;;5029105;28;20193;-84
2023/10/01 01:09:23;;;;;;;3.60;2.30;;;31.90;47.60;;;;;;5019509;28;20193;-84
2023/10/01 01:11:54;;;;;;;4.10;2.20;;;32.00;47.30;;;;;;5031275;28;20283;-83
2023/10/01 01:14:26;;;;;;;3.42;2.30;;;32.20;47.10;;;;;;5030906;28;20231;-83
2023/10/01 01:16:59;;;;;;;3.55;1.98;;;32.30;45.60;;;;;;5030681;28;20660;-84
2023/10/01 01:19:30;;;;;;;6.45;2.40;;;32.40;45.30;;;;;;5031295;28;20204;-84
2023/10/01 01:22:03;;;;;;;4.40;2.00;;;32.50;44.20;;;;;;5030766;28;20982;-83
2023/10/01 01:24:36;;;;;;;7.15;2.30;;;32.60;44.40;;;;;;5031190;28;20197;-84
2023/10/01 01:27:06;;;;;;;4.72;1.92;;;32.70;42.80;;;;;;5031438;28;20197;-84
2023/10/01 01:29:40;;;;;;;3.85;1.70;;;32.80;43.10;;;;;;5031362;28;20284;-83
2023/10/01 01:32:15;;;;;;;3.90;1.90;;;32.90;42.40;;;;;;5030716;28;20201;-82
2023/10/01 01:34:46;;;;;;;4.05;2.05;;;33.10;42.20;;;;;;5033288;28;20755;-83
2023/10/01 01:37:30;;;;;;;4.22;2.08;;;33.20;42.00;;;;;;5034947;28;20201;-83
2023/10/01 01:40:09;;;;;;;3.63;1.75;;;33.30;41.60;;;;;;5034372;28;20611;-84
2023/10/01 01:42:40;;;;;;;2.05;1.70;;;33.40;40.60;;;;;;5034579;28;20220;-84
2023/10/01 01:45:19;;;;;;;4.55;1.83;;;33.50;40.20;;;;;;5034147;28;20212;-83
2023/10/01 01:47:49;;;;;;;3.53;1.70;;;33.60;38.60;;;;;;5034995;28;20578;-85
2023/10/01 01:50:26;;;;;;;6.55;1.90;;;33.70;39.10;;;;;;5034608;28;20209;-83
2023/10/01 01:52:58;;;;;;;2.28;1.77;;;33.70;37.80;;;;;;5052850;28;20236;-84
2023/10/01 01:55:31;;;;;;;3.80;1.60;;;33.80;36.90;;;;;;5040728;28;20272;-83
2023/10/01 01:58:09;;;;;;;5.32;1.88;;;33.80;37.00;;;;;;5034044;28;20240;-84
2023/10/01 02:01:00;;;;;;;2.25;1.60;;;33.90;36.00;;;;;;5034249;28;20225;-84
2023/10/01 02:03:32;;;;;;;7.85;1.73;;;34.10;36.40;;;;;;5040346;28;20663;-85
2023/10/01 02:06:05;;;;;;;2.97;1.60;;;34.20;34.80;;;;;;5034852;28;20229;-84
2023/10/01 02:08:48;;;;;;;5.18;1.50;;;34.30;35.90;;;;;;5027756;28;20200;-83
2023/10/01 02:11:21;;;;;;;3.90;1.42;;;34.50;36.00;;;;;;5034640;28;20197;-84
2023/10/01 02:13:54;;;;;;;3.88;1.63;;;34.50;34.80;;;;;;5027350;28;20225;-85
2023/10/01 02:16:35;;;;;;;5.13;1.65;;;34.50;34.40;;;;;;5033938;28;20610;-86
2023/10/01 02:19:17;;;;;;;3.38;1.67;;;34.50;34.20;;;;;;5034292;28;20659;-83
2023/10/01 02:21:52;;;;;;;5.07;1.58;;;34.60;33.60;;;;;;5014193;28;20240;-83
2023/10/01 02:24:37;;;;;;;2.05;1.40;;;34.60;33.70;;;;;;5015785;28;20228;-83
2023/10/01 02:27:11;;;;;;;4.85;1.83;;;34.80;34.20;;;;;;5015581;28;20220;-84
2023/10/01 02:30:11;;;;;;;6.18;1.83;;;34.90;33.30;;;;;;5030709;28;20301;-85
2023/10/01 02:32:49;;;;;;;5.78;1.65;;;34.90;33.40;;;;;;5035628;28;20205;-85
2023/10/01 02:35:41;;;;;;;3.60;1.60;;;34.80;34.20;;;;;;5020718;28;20202;-84
2023/10/01 02:38:36;;;;;;;2.72;1.55;;;34.90;33.30;;;;;;5037023;28;20196;-84
2023/10/01 02:41:02;;;;;;;8.40;1.60;;;35.00;32.40;;;;;;5048700;28;20221;-84
2023/10/01 02:43:35;;;;;;;2.00;1.40;;;35.20;33.20;;;;;;5063534;28;20303;-84
2023/10/01 02:46:09;;;;;;;3.97;1.40;;;35.40;31.90;;;;;;5048134;28;20198;-85
2023/10/01 02:48:41;;;;;;;2.50;1.50;;;35.40;31.80;;;;;;5032477;28;20560;-85
2023/10/01 02:51:16;;;;;;;1.65;1.45;;;35.60;32.60;;;;;;5033982;28;20201;-84
2023/10/01 02:56:33;;;;;;;4.38;1.30;;;35.70;31.90;;;;;;5032630;28;20687;-85
2023/10/01 02:59:13;;;;;;;2.00;1.35;;;35.90;31.60;;;;;;5028720;28;20591;-85
2023/10/01 03:01:45;;;;;;;2.38;1.50;;;35.70;31.60;;;;;;5032451;28;20237;-85
2023/10/01 03:04:18;;;;;;;2.15;1.33;;;35.70;31.90;;;;;;5034077;28;20193;-84
2023/10/01 03:06:53;;;;;;;3.00;1.42;;;35.70;31.20;;;;;;5028125;28;20194;-84
2023/10/01 03:09:31;;;;;;;3.33;1.38;;;35.90;29.70;;;;;;5034772;28;20192;-84
2023/10/01 03:15:00;;;;;;;3.78;1.25;;;36.00;27.20;;;;;;5036787;28;20679;-84
2023/10/01 03:17:38;;;;;;;1.75;1.20;;;35.90;27.20;;;;;;5034473;28;20283;-84
2023/10/01 03:21:04;;;;;;;5.70;1.10;;;35.90;27.20;;;;;;5037454;28;20186;-84
2023/10/01 03:23:03;;;;;;;3.50;1.48;;;35.90;27.40;;;;;;5032477;28;20197;-84
2023/10/01 03:25:41;;;;;;;5.10;1.17;;;36.00;27.00;;;;;;5032802;28;20571;-86
2023/10/01 03:28:25;;;;;;;8.20;1.50;;;36.10;27.30;;;;;;5023930;28;20671;-85
2023/10/01 03:31:06;;;;;;;3.40;1.08;;;36.20;27.10;;;;;;5012720;28;20194;-85
2023/10/01 03:33:40;;;;;;;1.27;1.02;;;36.20;27.60;;;;;;5024011;28;20197;-85
2023/10/01 03:36:12;;;;;;;3.13;1.10;;;36.10;27.10;;;;;;5016666;28;20200;-85
2023/10/01 03:38:44;;;;;;;2.40;0.93;;;36.20;27.40;;;;;;5029562;28;20200;-86
2023/10/01 03:41:22;;;;;;;1.67;0.85;;;36.40;25.50;;;;;;5032779;28;20221;-86
2023/10/01 03:43:55;;;;;;;3.42;0.93;;;36.40;24.70;;;;;;5032340;28;20231;-85
2023/10/01 03:46:28;;;;;;;0.95;0.80;;;36.40;25.40;;;;;;5032079;28;20191;-86
2023/10/01 03:49:01;;;;;;;4.05;1.00;;;36.50;25.50;;;;;;5036265;28;20253;-85
2023/10/01 03:54:16;;;;;;;4.00;1.33;;;36.50;24.50;;;;;;5028233;28;20244;-86
2023/10/01 03:56:56;;;;;;;6.88;1.30;;;36.30;24.20;;;;;;5027405;28;20189;-86
2023/10/01 03:59:32;;;;;;;3.97;1.20;;;36.30;24.30;;;;;;5012859;28;20201;-87
2023/10/01 04:02:27;;;;;;;2.17;1.00;;;36.10;24.60;;;;;;5024327;28;20347;-84
2023/10/01 04:04:58;;;;;;;2.13;1.20;;;36.20;24.80;;;;;;5020185;28;20202;-85
2023/10/01 04:07:40;;;;;;;2.72;1.20;;;36.20;25.30;;;;;;5026480;28;20194;-86
2023/10/01 04:10:14;;;;;;;5.05;1.10;;;36.20;24.70;;;;;;5020676;28;20213;-86
2023/10/01 04:12:49;;;;;;;4.93;1.35;;;36.10;24.70;;;;;;5012028;28;20265;-85
2023/10/01 04:15:27;;;;;;;4.47;1.23;;;36.10;24.80;;;;;;5012776;28;20208;-86
2023/10/01 04:18:21;;;;;;;2.50;1.10;;;36.00;24.80;;;;;;5016115;28;20200;-85
2023/10/01 04:23:40;;;;;;;2.72;1.10;;;36.10;24.90;;;;;;5016687;28;20197;-86
2023/10/01 04:26:13;;;;;;;5.53;1.27;;;36.10;25.20;;;;;;5033900;28;20200;-85
2023/10/01 04:28:46;;;;;;;7.18;1.10;;;36.00;24.60;;;;;;5031754;28;20689;-83
2023/10/01 04:31:19;;;;;;;1.85;0.95;;;35.90;24.40;;;;;;5031244;28;20542;-85
2023/10/01 04:33:54;;;;;;;2.65;1.13;;;36.00;24.60;;;;;;5031869;28;20309;-84
2023/10/01 04:36:26;;;;;;;2.45;1.10;;;36.00;24.80;;;;;;5031585;28;20613;-84
2023/10/01 04:39:00;;;;;;;3.20;1.40;;;36.10;24.80;;;;;;5032046;28;20201;-85
2023/10/01 04:41:31;;;;;;;5.03;1.30;;;36.00;24.50;;;;;;5038492;28;20852;-85
2023/10/01 04:44:06;;;;;;;4.78;1.40;;;36.10;25.00;;;;;;5051679;28;20204;-86
2023/10/01 04:46:40;;;;;;;4.18;0.90;;;36.20;25.50;;;;;;5051139;28;20195;-85
2023/10/01 04:52:00;;;;;;;3.58;1.10;;;36.20;24.80;;;;;;5031941;28;20283;-85
2023/10/01 04:54:32;;;;;;;3.53;0.98;;;36.10;24.30;;;;;;5031321;28;20201;-86
2023/10/01 04:57:02;;;;;;;2.72;1.10;;;36.00;24.70;;;;;;5030321;28;20292;-86
2023/10/01 04:59:33;;;;;;;1.52;1.00;;;36.20;24.50;;;;;;5032410;28;20240;-86
2023/10/01 05:02:18;;;;;;;4.47;1.27;;;36.20;24.40;;;;;;5014142;28;20229;-85
2023/10/01 05:05:08;;;;;;;3.28;1.20;;;36.10;24.50;;;;;;5015146;28;20286;-85
2023/10/01 05:07:39;;;;;;;4.88;1.35;;;36.10;24.50;;;;;;5030866;28;20198;-85
2023/10/01 05:10:12;;;;;;;4.13;1.08;;;35.80;24.90;;;;;;5018490;28;20197;-85
2023/10/01 05:12:45;;;;;;;2.17;1.20;;;35.70;26.00;;;;;;5031199;28;20290;-85
2023/10/01 05:15:24;;;;;;;6.85;1.30;;;35.70;25.70;;;;;;5031106;28;20675;-86
2023/10/01 05:17:56;;;;;;;6.22;1.42;;;35.80;26.10;;;;;;5031284;28;20292;-86
2023/10/01 05:20:29;;;;;;;3.25;1.30;;;36.00;25.40;;;;;;5029987;28;20193;-85
2023/10/01 05:23:02;;;;;;;2.53;1.10;;;36.30;25.80;;;;;;5029494;28;20228;-85
2023/10/01 05:25:33;;;;;;;6.70;1.33;;;36.30;25.90;;;;;;5030080;28;20607;-85
2023/10/01 05:28:23;;;;;;;1.40;1.10;;;36.20;26.10;;;;;;5031821;28;20205;-86
2023/10/01 05:30:57;;;;;;;5.28;1.17;;;35.90;26.30;;;;;;5019079;28;20212;-86
2023/10/01 05:33:32;;;;;;;4.00;1.38;;;35.60;25.30;;;;;;5043163;28;20630;-86
2023/10/01 05:36:06;;;;;;;5.00;1.58;;;35.60;25.90;;;;;;5041745;28;20196;-85
2023/10/01 05:38:40;;;;;;;6.63;1.35;;;35.50;26.50;;;;;;5039508;28;20208;-86
2023/10/01 05:41:15;;;;;;;7.03;1.50;;;35.40;26.60;;;;;;5031986;28;20201;-87
2023/10/01 05:43:50;;;;;;;3.10;1.20;;;35.20;26.60;;;;;;5032026;28;20244;-85
2023/10/01 05:46:22;;;;;;;2.20;1.40;;;35.10;26.70;;;;;;5029590;28;20192;-85
2023/10/01 05:48:55;;;;;;;5.68;1.20;;;35.00;26.50;;;;;;5031624;28;20202;-86
2023/10/01 05:51:42;;;;;;;2.40;1.20;;;34.90;27.40;;;;;;5031961;28;20251;-86
2023/10/01 05:54:18;;;;;;;2.60;1.60;;;34.90;27.50;;;;;;5031016;28;20205;-86
2023/10/01 05:56:55;;;;;;;7.65;1.20;;;34.80;27.30;;;;;;5032443;28;20216;-86
2023/10/01 05:59:26;;;;;;;3.63;1.08;;;34.70;26.80;;;;;;5030177;28;20215;-86
2023/10/01 06:01:57;;;;;;;2.63;1.25;;;34.70;26.80;;;;;;5025558;28;20222;-87
2023/10/01 06:04:28;;;;;;;5.28;1.20;;;34.70;26.60;;;;;;5015842;28;20189;-87
2023/10/01 06:07:02;;;;;;;4.40;1.20;;;34.70;26.40;;;;;;5028052;28;20205;-86
2023/10/01 06:09:34;;;;;;;3.25;1.20;;;34.70;26.40;;;;;;5031091;28;20196;-86
2023/10/01 06:12:10;;;;;;;4.97;1.17;;;34.70;26.30;;;;;;5031166;28;20671;-86
2023/10/01 06:14:41;;;;;;;2.45;1.05;;;34.80;26.50;;;;;;5031185;28;20181;-85
2023/10/01 06:17:12;;;;;;;3.60;1.20;;;34.80;26.10;;;;;;5026493;28;20203;-86
2023/10/01 06:19:43;;;;;;;2.65;1.27;;;34.80;26.00;;;;;;5022216;28;20198;-86
2023/10/01 06:22:22;;;;;;;2.28;1.20;;;35.00;26.30;;;;;;5014690;28;20225;-86
2023/10/01 06:24:54;;;;;;;4.82;1.50;;;35.10;26.20;;;;;;5033830;28;20736;-86
2023/10/01 06:27:28;;;;;;;6.63;1.30;;;35.00;25.50;;;;;;5032728;28;20200;-86
2023/10/01 06:30:00;;;;;;;6.03;1.20;;;34.90;25.80;;;;;;5019454;28;20198;-86
2023/10/01 06:32:33;;;;;;;6.55;1.40;;;34.80;25.20;;;;;;5015599;28;20268;-86
2023/10/01 06:35:04;;;;;;;4.80;1.20;;;34.70;25.50;;;;;;5025556;28;20216;-86
2023/10/01 06:37:50;;;;;;;2.97;1.05;;;34.70;25.60;;;;;;5034672;28;20197;-86
2023/10/01 06:40:32;;;;;;;4.82;1.45;;;34.70;25.50;;;;;;5043900;28;20226;-86
2023/10/01 06:43:03;;;;;;;3.78;1.10;;;34.50;25.60;;;;;;5041380;28;20239;-85
2023/10/01 06:45:44;;;;;;;4.43;1.50;;;34.50;25.80;;;;;;5018666;28;20202;-85
2023/10/01 06:48:24;;;;;;;6.80;1.50;;;34.40;26.00;;;;;;5018040;28;20198;-85
2023/10/01 06:50:54;;;;;;;3.80;1.52;;;34.40;25.50;;;;;;5029653;28;20201;-86
2023/10/01 06:53:43;;;;;;;2.08;1.50;;;34.30;25.60;;;;;;5035598;28;20189;-86
2023/10/01 06:56:17;;;;;;;8.98;1.40;;;34.30;25.50;;;;;;5015405;28;20273;-85
2023/10/01 06:59:12;;;;;;;4.75;1.38;;;34.30;26.00;;;;;;5035942;28;20259;-84
2023/10/01 07:01:46;;;;;;;8.82;1.73;;;34.20;25.90;;;;;;5033174;28;20251;-85
2023/10/01 07:04:18;;;;;;;3.70;1.27;;;34.20;25.10;;;;;;5035987;28;20192;-84
2023/10/01 07:06:51;;;;;;;5.00;1.40;;;34.20;25.30;;;;;;5036478;28;20197;-85
2023/10/01 07:09:32;;;;;;;3.33;1.10;;;34.20;25.10;;;;;;5034628;28;20746;-86
2023/10/01 07:12:04;;;;;;;3.88;1.25;;;34.10;24.90;;;;;;5016668;28;20190;-86
2023/10/01 07:14:43;;;;;;;2.97;1.40;;;34.00;25.70;;;;;;5025966;28;20197;-86
2023/10/01 07:17:18;;;;;;;5.28;1.58;;;33.90;25.30;;;;;;5036070;28;20193;-86
2023/10/01 07:19:59;;;;;;;3.60;1.30;;;33.90;24.40;;;;;;5032366;28;20204;-86
2023/10/01 07:22:34;;;;;;;3.05;1.25;;;34.00;24.80;;;;;;5046161;28;20280;-86
2023/10/01 07:25:28;;;;;;;4.55;2.78;;;34.00;24.90;;;;;;5046812;28;20280;-84
2023/10/01 07:27:58;;;;;;;2.55;1.27;;;34.00;24.80;;;;;;5040788;28;20200;-84
2023/10/01 07:30:45;;;;;;;3.53;1.48;;;33.90;25.20;;;;;;5038302;28;20239;-85
2023/10/01 07:33:17;;;;;;;7.60;1.67;;;33.90;25.20;;;;;;5014790;28;20209;-85
2023/10/01 07:35:58;;;;;;;2.17;1.35;;;33.80;25.30;;;;;;5033957;28;20254;-84
2023/10/01 07:38:30;;;;;;;5.47;1.30;;;33.60;25.60;;;;;;5032570;28;20234;-83
2023/10/01 07:41:12;;;;;;;2.00;1.30;;;33.60;25.40;;;;;;5031106;28;20614;-85
2023/10/01 07:43:43;;;;;;;4.63;1.58;;;33.50;26.10;;;;;;5033250;28;20229;-84
2023/10/01 07:46:14;;;;;;;2.65;1.17;;;33.30;26.30;;;;;;5033308;28;20197;-86
2023/10/01 07:48:47;;;;;;;3.15;1.33;;;33.20;26.00;;;;;;5042829;28;20200;-84
2023/10/01 07:51:28;;;;;;;4.53;1.77;;;33.20;26.00;;;;;;5045736;28;20204;-87
2023/10/01 07:54:02;;;;;;;3.20;1.52;;;33.20;25.80;;;;;;5032654;28;20197;-85
2023/10/01 07:56:35;;;;;;;3.45;1.50;;;33.20;25.90;;;;;;5033382;28;20208;-85
2023/10/01 07:59:33;;;;;;;3.92;1.50;;;33.10;26.10;;;;;;5020768;28;20202;-84
2023/10/01 08:02:19;;;;;;;4.80;1.67;;;33.10;26.20;;;;;;5028542;28;20209;-85
2023/10/01 08:04:59;;;;;;;5.18;2.00;;;33.10;26.50;;;;;;5032531;28;20189;-87
2023/10/01 08:07:39;;;;;;;5.20;2.00;;;33.10;26.50;;;;;;5038554;28;20192;-86
2023/10/01 08:10:20;;;;;;;4.18;1.40;;;33.10;26.60;;;;;;5024076;28;20676;-86
2023/10/01 08:15:57;;;;;;;3.72;1.67;;;33.00;26.50;;;;;;5021790;28;20201;-87
2023/10/01 08:21:17;;;;;;;6.85;1.73;;;33.00;26.80;;;;;;5032222;28;20893;-86
2023/10/01 08:23:48;;;;;;;2.10;1.50;;;32.90;26.80;;;;;;5020141;28;20209;-85
2023/10/01 08:29:07;;;;;;;6.70;1.45;;;32.80;27.50;;;;;;5032265;28;20199;-86
2023/10/01 08:37:22;;;;;;;5.30;1.60;;;32.40;27.90;;;;;;5020414;28;20190;-87
2023/10/01 08:39:53;;;;;;;4.45;1.38;;;32.30;28.30;;;;;;5031834;28;20200;-86
2023/10/01 08:42:28;;;;;;;3.20;1.65;;;32.20;28.60;;;;;;5032258;28;20213;-84
2023/10/01 08:45:03;;;;;;;4.00;1.50;;;32.10;29.10;;;;;;5032154;28;20196;-87
2023/10/01 08:47:39;;;;;;;4.72;1.55;;;32.10;28.70;;;;;;5018955;28;20356;-86
2023/10/01 08:50:26;;;;;;;3.97;1.58;;;32.10;28.30;;;;;;5030164;28;20198;-86
2023/10/01 08:52:58;;;;;;;5.47;1.60;;;32.10;28.20;;;;;;5022006;28;20205;-87
2023/10/01 08:55:35;;;;;;;7.68;3.10;;;32.10;28.80;;;;;;5011884;28;20284;-87
2023/10/01 08:58:25;;;;;;;4.78;1.70;;;32.00;28.10;;;;;;5021151;28;20226;-86
2023/10/01 09:03:47;;;;;;;4.30;2.30;;;32.00;28.40;;;;;;5012473;28;20708;-86
2023/10/01 09:06:29;;;;;;;3.63;1.70;;;32.00;28.80;;;;;;5012484;28;20197;-87
2023/10/01 09:09:01;;;;;;;4.00;1.83;;;31.90;28.70;;;;;;5015275;28;20201;-87
2023/10/01 09:11:53;;;;;;;;;;;;;;;;;;;;;
2023/10/01 09:14:39;;;;;;;5.38;1.50;;;31.70;29.10;;;;;;5034598;28;20312;-88
2023/10/01 09:17:26;;;;;;;7.68;1.55;;;31.70;29.00;;;;;;5031945;28;20610;-87
2023/10/01 09:20:06;;;;;;;3.38;1.50;;;31.60;29.10;;;;;;5017518;28;20718;-87
2023/10/01 09:22:42;;;;;;;3.78;1.30;;;31.60;29.30;;;;;;5017271;28;20225;-87
2023/10/01 09:25:21;;;;;;;2.85;1.23;;;31.50;29.50;;;;;;5016880;28;20259;-88
2023/10/01 09:28:03;;;;;;;3.13;1.52;;;31.40;29.90;;;;;;5032077;28;20197;-87
2023/10/01 09:30:35;;;;;;;3.60;1.60;;;31.30;30.40;;;;;;5031776;28;20204;-88
2023/10/01 09:33:14;;;;;;;2.45;1.55;;;31.20;30.50;;;;;;5035741;28;20193;-87
2023/10/01 09:35:49;;;;;;;3.25;1.50;;;31.10;30.90;;;;;;5035618;28;20216;-88
2023/10/01 09:38:27;;;;;;;4.53;1.73;;;31.00;30.80;;;;;;5033332;28;20227;-87
2023/10/01 09:40:58;;;;;;;5.80;2.30;;;30.90;31.80;;;;;;5023108;28;20696;-88
2023/10/01 09:43:32;;;;;;;3.55;2.10;;;30.70;31.60;;;;;;5019812;28;20308;-86
2023/10/01 09:46:06;;;;;;;3.65;2.10;;;30.70;31.90;;;;;;5021146;28;20259;-87
2023/10/01 09:48:48;;;;;;;7.03;1.80;;;30.60;31.80;;;;;;5026238;28;20202;-86
2023/10/01 09:51:21;;;;;;;3.20;1.95;;;30.40;31.80;;;;;;5029868;28;20276;-88
2023/10/01 09:53:57;;;;;;;2.97;1.73;;;30.30;32.20;;;;;;5031077;28;20690;-87
2023/10/01 09:56:46;;;;;;;6.13;1.60;;;30.20;32.30;;;;;;5034233;28;20568;-87
2023/10/01 09:59:17;;;;;;;2.65;1.63;;;30.20;32.70;;;;;;5031763;28;20255;-86
2023/10/01 10:01:48;;;;;;;7.65;2.35;;;30.10;32.50;;;;;;5026290;28;20663;-87
2023/10/01 10:04:24;;;;;;;5.35;2.42;;;30.10;32.80;;;;;;5035857;28;20726;-87
2023/10/01 10:07:01;;;;;;;31.73;8.32;;;30.20;34.40;;;;;;5035239;28;20193;-89
2023/10/01 10:09:34;;;;;;;48.55;9.80;;;29.60;53.00;;;;;;5028471;28;20189;-87
2023/10/01 10:12:07;;;;;;;43.50;10.32;;;28.50;76.40;;;;;;5017877;28;20209;-86
2023/10/01 10:14:58;;;;;;;68.53;16.10;;;27.50;92.00;;;;;;5015433;28;20206;-86
2023/10/01 10:17:38;;;;;;;44.85;10.60;;;26.60;99.90;;;;;;5015798;28;20201;-87
2023/10/01 10:20:31;;;;;;;47.58;11.00;;;26.10;99.90;;;;;;5031453;28;20254;-86
2023/10/01 10:23:21;;;;;;;43.85;9.60;;;25.60;99.90;;;;;;5042864;28;20255;-88
2023/10/01 10:25:56;;;;;;;51.55;11.45;;;25.10;99.90;;;;;;5036307;28;20201;-87
2023/10/01 10:28:56;;;;;;;45.85;10.73;;;24.90;99.90;;;;;;5036150;28;20702;-86
2023/10/01 10:31:36;;;;;;;47.40;9.35;;;24.70;99.90;;;;;;5034652;28;20566;-88
2023/10/01 10:34:25;;;;;;;43.03;9.75;;;24.50;99.90;;;;;;5032964;28;20197;-87
2023/10/01 10:37:00;;;;;;;40.53;10.13;;;24.30;99.90;;;;;;5033775;28;20193;-88
2023/10/01 10:40:22;;;;;;;44.30;9.95;;;24.10;99.90;;;;;;5049842;28;20203;-86
2023/10/01 10:43:16;;;;;;;45.35;9.23;;;23.80;99.90;;;;;;5040776;28;20233;-87
2023/10/01 10:46:09;;;;;;;46.78;9.95;;;23.50;99.90;;;;;;5018937;28;20251;-87
2023/10/01 10:48:59;;;;;;;44.20;9.43;;;23.50;99.90;;;;;;5034474;28;20255;-87
2023/10/01 10:51:48;;;;;;;41.45;9.30;;;23.40;99.90;;;;;;5035123;28;20232;-87
2023/10/01 10:54:36;;;;;;;33.97;7.80;;;23.20;99.90;;;;;;5033652;28;20197;-87
2023/10/01 10:57:07;;;;;;;42.38;8.98;;;23.20;99.90;;;;;;5015731;28;20202;-88
2023/10/01 10:59:39;;;;;;;41.35;9.05;;;23.00;99.90;;;;;;5039371;28;20225;-86
2023/10/01 11:02:10;;;;;;;45.05;9.05;;;23.00;99.90;;;;;;5041430;28;20205;-88
2023/10/01 11:04:42;;;;;;;40.50;8.38;;;23.00;99.90;;;;;;5039148;28;20598;-85
2023/10/01 11:07:19;;;;;;;41.55;8.60;;;22.80;99.90;;;;;;5038715;28;20189;-88
2023/10/01 11:10:03;;;;;;;46.35;9.02;;;22.90;99.90;;;;;;5040033;28;20201;-87
2023/10/01 11:12:34;;;;;;;40.50;9.63;;;22.70;99.90;;;;;;5038590;28;20253;-87
2023/10/01 11:17:49;;;;;;;47.53;10.02;;;22.60;99.90;;;;;;5035904;28;20197;-85
2023/10/01 11:20:24;;;;;;;40.53;9.23;;;22.60;99.90;;;;;;5039844;28;20252;-85
2023/10/01 11:22:56;;;;;;;41.53;8.60;;;22.50;99.90;;;;;;5028402;28;20193;-86
2023/10/01 11:25:29;;;;;;;34.60;7.47;;;22.50;99.90;;;;;;5027276;28;20288;-87
2023/10/01 11:28:07;;;;;;;36.10;9.13;;;22.40;99.90;;;;;;5037059;28;20189;-85
2023/10/01 11:30:42;;;;;;;32.17;8.38;;;22.40;99.90;;;;;;5051804;28;20200;-86
2023/10/01 11:33:29;;;;;;;39.95;8.05;;;22.50;99.90;;;;;;5041083;28;20197;-86
2023/10/01 11:36:09;;;;;;;55.10;13.60;;;22.50;99.90;;;;;;5035293;28;20193;-85
2023/10/01 11:38:50;;;;;;;43.05;7.45;;;22.40;99.90;;;;;;5043389;28;20248;-84
2023/10/01 11:41:38;;;;;;;34.15;9.23;;;22.30;99.90;;;;;;5043584;28;20197;-86
2023/10/01 11:44:16;;;;;;;35.80;7.63;;;22.30;99.90;;;;;;5021798;28;20213;-84
2023/10/01 11:46:59;;;;;;;34.72;7.93;;;22.30;99.90;;;;;;5034220;28;20243;-86
2023/10/01 11:49:34;;;;;;;34.25;7.32;;;22.20;99.90;;;;;;5039200;28;20196;-85
2023/10/01 11:52:21;;;;;;;39.70;8.07;;;22.20;99.90;;;;;;5041008;28;20220;-86
2023/10/01 11:54:54;;;;;;;37.50;8.02;;;22.20;99.90;;;;;;5023820;28;20213;-85
2023/10/01 11:57:31;;;;;;;33.70;8.48;;;22.20;99.90;;;;;;5019026;28;20205;-86
2023/10/01 12:00:03;;;;;;;38.55;7.93;;;22.20;99.90;;;;;;5031664;28;20208;-86
2023/10/01 12:02:43;;;;;;;38.53;7.65;;;22.10;99.90;;;;;;5031791;28;20609;-84
2023/10/01 12:05:16;;;;;;;44.67;7.95;;;22.00;99.90;;;;;;5021253;28;20635;-84
2023/10/01 12:07:47;;;;;;;35.30;7.90;;;22.00;99.90;;;;;;5019353;28;20197;-85
2023/10/01 12:10:31;;;;;;;30.88;7.50;;;22.00;99.90;;;;;;5029605;28;20269;-84
2023/10/01 12:13:07;;;;;;;36.65;7.85;;;22.00;99.90;;;;;;5032393;28;20210;-83
2023/10/01 12:15:43;;;;;;;36.25;7.00;;;22.00;99.90;;;;;;5032396;28;20196;-81
2023/10/01 12:18:15;;;;;;;31.83;7.15;;;22.00;99.90;;;;;;5038148;28;20221;-84
2023/10/01 12:20:50;;;;;;;33.47;7.57;;;22.00;99.90;;;;;;5038097;28;20211;-85
2023/10/01 12:23:22;;;;;;;32.97;6.82;;;22.00;99.90;;;;;;5036769;28;20203;-84
2023/10/01 12:26:31;;;;;;;32.80;7.07;;;21.90;99.90;;;;;;5036303;28;20193;-84
2023/10/01 12:31:30;;;;;;;27.42;5.88;;;21.80;99.90;;;;;;5035171;28;20194;-85
2023/10/01 12:34:01;;;;;;;33.75;6.50;;;21.90;99.90;;;;;;5029924;28;20207;-86
2023/10/01 12:36:42;;;;;;;25.02;6.20;;;22.00;99.90;;;;;;5031814;28;20193;-86
2023/10/01 12:39:17;;;;;;;24.17;5.40;;;22.00;99.90;;;;;;5020081;28;20212;-84
2023/10/01 12:42:04;;;;;;;25.80;6.03;;;22.00;99.90;;;;;;5031236;28;20229;-85
2023/10/01 12:44:36;;;;;;;26.40;5.55;;;22.00;99.90;;;;;;5031602;28;20282;-84
2023/10/01 12:47:08;;;;;;;32.63;6.07;;;22.00;99.90;;;;;;5041891;28;20727;-85
2023/10/01 12:49:37;;;;;;;28.92;5.72;;;22.00;99.90;;;;;;5035013;28;20190;-84
2023/10/01 12:52:09;;;;;;;27.13;5.55;;;21.80;99.90;;;;;;5032995;28;20722;-85
2023/10/01 12:54:41;;;;;;;28.45;5.32;;;21.80;99.90;;;;;;5039535;28;20731;-84
2023/10/01 12:57:12;;;;;;;25.02;4.90;;;21.90;99.90;;;;;;5045586;28;20197;-85
2023/10/01 12:59:44;;;;;;;29.27;5.50;;;21.90;99.90;;;;;;5034682;28;20201;-85
2023/10/01 13:02:28;;;;;;;27.40;5.05;;;22.00;99.90;;;;;;5031756;28;20205;-85
2023/10/01 13:07:43;;;;;;;21.27;4.72;;;21.90;99.90;;;;;;5013820;28;20565;-85
2023/10/01 13:10:13;;;;;;;26.58;4.70;;;21.70;99.90;;;;;;5013268;28;20198;-84
2023/10/01 13:12:55;;;;;;;22.13;4.38;;;21.60;99.90;;;;;;5031296;28;20229;-85
2023/10/01 13:15:36;;;;;;;26.67;5.70;;;21.70;99.90;;;;;;5033839;28;20616;-86
2023/10/01 13:18:15;;;;;;;22.10;4.95;;;21.60;99.90;;;;;;5019839;28;20244;-83
2023/10/01 13:20:58;;;;;;;21.80;4.28;;;21.60;99.90;;;;;;5012484;28;20236;-85
2023/10/01 13:23:31;;;;;;;27.10;4.70;;;21.50;99.90;;;;;;5031800;28;20614;-84
2023/10/01 13:26:09;;;;;;;22.58;4.35;;;21.60;99.90;;;;;;5030149;28;20189;-84
2023/10/01 13:28:46;;;;;;;17.60;4.45;;;21.60;99.90;;;;;;5029325;28;20203;-84
2023/10/01 13:34:32;;;;;;;26.27;5.38;;;21.60;99.90;;;;;;5014339;28;20204;-86
2023/10/01 13:37:42;;;;;;;22.83;4.30;;;21.50;99.90;;;;;;5034347;28;20212;-86
2023/10/01 13:40:28;;;;;;;19.67;4.55;;;21.50;99.90;;;;;;5036710;28;20189;-86
2023/10/01 14:11:15;;;;;;;26.40;5.25;;;21.40;99.90;;;;;;5042564;28;20220;-86
2023/10/01 14:13:47;;;;;;;20.13;4.55;;;21.40;99.90;;;;;;5034152;28;20528;-84
2023/10/01 14:16:22;;;;;;;18.40;4.07;;;21.40;99.90;;;;;;5033917;28;20211;-85
2023/10/01 14:18:57;;;;;;;20.15;4.97;;;21.30;99.90;;;;;;5035140;28;20656;-85
2023/10/01 14:21:30;;;;;;;17.63;4.15;;;21.30;99.90;;;;;;5032764;28;20200;-84
2023/10/01 14:26:46;;;;;;;19.20;4.05;;;21.30;99.90;;;;;;5019047;28;20200;-86
2023/10/01 14:29:22;;;;;;;24.25;4.80;;;21.20;99.90;;;;;;5033761;28;20661;-85
2023/10/01 14:31:53;;;;;;;21.08;4.90;;;21.30;99.90;;;;;;5034143;28;20204;-85
2023/10/01 14:34:24;;;;;;;18.20;4.35;;;21.40;99.90;;;;;;5051296;28;20542;-85
2023/10/01 14:37:00;;;;;;;19.58;4.40;;;21.40;99.90;;;;;;5046107;28;20200;-86
2023/10/01 14:39:32;;;;;;;20.05;4.82;;;21.30;99.90;;;;;;5025453;28;20276;-84
2023/10/01 14:42:03;;;;;;;19.65;4.70;;;21.40;99.90;;;;;;5032216;28;20974;-84
2023/10/01 14:44:42;;;;;;;21.73;4.63;;;21.40;99.90;;;;;;5034217;28;20704;-85
2023/10/01 14:47:17;;;;;;;17.92;4.18;;;21.40;99.90;;;;;;5031986;28;20200;-84